createdAt,value
2024-03-31T00:01:21.198Z,5.90
2024-03-31T00:03:48.683Z,7.30
2024-03-31T00:06:16.066Z,9.10
2024-03-31T00:08:44.716Z,5.50
2024-03-31T00:11:13.522Z,6.10
2024-03-31T00:13:40.937Z,5.20
2024-03-31T00:16:08.394Z,6.80
2024-03-31T00:18:35.865Z,7.00
2024-03-31T00:21:03.343Z,4.10
2024-03-31T00:23:30.756Z,6.30
2024-03-31T00:26:01.303Z,5.50
2024-03-31T00:28:28.652Z,4.50
2024-03-31T00:30:59.394Z,3.60
2024-03-31T00:33:26.755Z,5.50
2024-03-31T00:35:57.679Z,5.70
2024-03-31T00:38:25.461Z,4.80
2024-03-31T00:40:52.925Z,7.40
2024-03-31T00:43:20.306Z,6.50
2024-03-31T00:45:47.710Z,3.90
2024-03-31T00:48:15.085Z,4.40
2024-03-31T00:50:42.412Z,5.00
2024-03-31T00:53:09.837Z,4.10
2024-03-31T00:55:37.615Z,5.70
2024-03-31T00:58:04.981Z,3.50
2024-03-31T01:00:34.188Z,4.20
2024-03-31T01:03:01.584Z,5.90
2024-03-31T01:05:29.142Z,7.30
2024-03-31T01:07:56.558Z,4.10
2024-03-31T01:10:24.371Z,7.90
2024-03-31T01:12:51.753Z,5.30
2024-03-31T01:15:20.153Z,6.50
2024-03-31T01:17:48.616Z,5.10
2024-03-31T01:20:16.021Z,8.00
2024-03-31T01:22:43.527Z,7.60
2024-03-31T01:25:11.177Z,10.40
2024-03-31T01:27:38.588Z,5.90
2024-03-31T01:30:07.126Z,8.20
2024-03-31T01:32:34.871Z,6.90
2024-03-31T01:35:02.317Z,6.10
2024-03-31T01:37:29.697Z,3.10
2024-03-31T01:39:59.585Z,7.40
2024-03-31T01:42:26.972Z,8.50
2024-03-31T01:44:54.337Z,10.60
2024-03-31T01:47:21.711Z,15.80
2024-03-31T01:49:49.109Z,14.00
2024-03-31T01:52:16.498Z,18.70
2024-03-31T01:54:43.883Z,17.10
2024-03-31T01:57:11.237Z,32.20
2024-03-31T01:59:38.664Z,38.30
2024-03-31T02:02:06.108Z,36.70
2024-03-31T02:04:33.511Z,50.00
2024-03-31T02:07:00.959Z,59.30
2024-03-31T02:09:28.296Z,52.40
2024-03-31T02:11:55.751Z,43.20
2024-03-31T02:14:24.668Z,49.10
2024-03-31T02:16:52.006Z,37.80
2024-03-31T02:19:19.403Z,42.80
2024-03-31T02:21:46.751Z,47.10
2024-03-31T02:24:14.090Z,70.80
2024-03-31T02:26:41.521Z,52.90
2024-03-31T02:29:09.017Z,48.60
2024-03-31T02:31:36.602Z,74.20
2024-03-31T02:34:04.480Z,83.90
2024-03-31T02:36:31.909Z,80.70
2024-03-31T02:38:59.801Z,78.30
2024-03-31T02:41:28.016Z,60.10
2024-03-31T02:43:55.585Z,51.50
2024-03-31T02:46:23.334Z,65.30
2024-03-31T02:48:50.693Z,53.20
2024-03-31T02:51:18.054Z,59.90
2024-03-31T02:53:45.467Z,61.50
2024-03-31T02:56:12.914Z,62.00
2024-03-31T02:58:40.327Z,47.10
2024-03-31T03:01:07.837Z,67.60
2024-03-31T03:03:35.295Z,32.50
2024-03-31T03:06:04.180Z,77.10
2024-03-31T03:08:31.680Z,67.90
2024-03-31T03:10:59.190Z,48.00
2024-03-31T03:13:27.486Z,31.60
2024-03-31T03:15:54.993Z,48.30
2024-03-31T03:18:22.570Z,44.80
2024-03-31T03:20:52.687Z,48.90
2024-03-31T03:23:20.075Z,46.90
2024-03-31T03:25:54.318Z,58.50
2024-03-31T03:30:49.718Z,96.50
2024-03-31T03:33:20.112Z,219.40
2024-03-31T03:35:47.573Z,287.80
2024-03-31T03:38:15.454Z,295.80
2024-03-31T03:40:43.037Z,217.60
2024-03-31T03:43:10.736Z,144.50
2024-03-31T03:45:42.465Z,119.80
2024-03-31T03:48:10.223Z,72.10
2024-03-31T03:50:38.090Z,67.50
2024-03-31T03:53:06.284Z,39.90
2024-03-31T03:55:33.625Z,48.30
2024-03-31T03:58:01.284Z,36.60
2024-03-31T04:00:28.826Z,27.70
2024-03-31T04:02:57.462Z,27.70
2024-03-31T04:05:24.808Z,46.00
2024-03-31T04:07:52.212Z,58.70
2024-03-31T04:10:19.605Z,175.60
2024-03-31T04:12:49.127Z,181.00
2024-03-31T04:15:16.680Z,173.50
2024-03-31T04:17:44.118Z,134.20
2024-03-31T04:20:11.513Z,144.30
2024-03-31T04:22:38.895Z,170.70
2024-03-31T04:25:06.718Z,184.30
2024-03-31T04:27:34.120Z,146.70
2024-03-31T04:30:02.697Z,160.50
2024-03-31T04:32:31.751Z,125.70
2024-03-31T04:34:59.171Z,74.30
2024-03-31T04:40:54.809Z,12.40
2024-03-31T04:43:22.553Z,13.60
2024-03-31T04:46:19.320Z,7.10
2024-03-31T04:48:46.732Z,6.30
2024-03-31T04:51:14.118Z,4.80
2024-03-31T04:53:42.757Z,8.70
2024-03-31T04:56:10.660Z,7.00
2024-03-31T04:58:38.018Z,8.60
2024-03-31T05:01:05.436Z,7.70
2024-03-31T05:03:32.855Z,11.00
2024-03-31T05:06:00.439Z,8.90
2024-03-31T05:08:27.842Z,11.50
2024-03-31T05:10:55.642Z,13.30
2024-03-31T05:13:29.011Z,14.60
2024-03-31T05:16:02.222Z,14.40
2024-03-31T05:18:30.000Z,15.20
2024-03-31T05:21:01.999Z,14.40
2024-03-31T05:23:29.899Z,15.40
2024-03-31T05:25:57.734Z,13.10
2024-03-31T05:28:25.274Z,11.00
2024-03-31T05:30:53.051Z,10.30
2024-03-31T05:33:20.869Z,13.40
2024-03-31T05:35:55.394Z,14.10
2024-03-31T05:38:22.845Z,10.80
2024-03-31T05:41:03.995Z,13.10
2024-03-31T05:43:31.611Z,10.40
2024-03-31T05:45:59.393Z,18.90
2024-03-31T05:48:27.951Z,21.20
2024-03-31T05:50:55.615Z,14.60
2024-03-31T05:53:23.621Z,14.10
2024-03-31T05:55:51.361Z,19.00
2024-03-31T05:58:18.736Z,25.90
2024-03-31T06:00:46.375Z,24.90
2024-03-31T06:03:13.974Z,24.50
2024-03-31T06:05:41.402Z,27.40
2024-03-31T06:08:08.977Z,21.10
2024-03-31T06:10:38.240Z,19.90
2024-03-31T06:13:07.031Z,15.30
2024-03-31T06:15:34.452Z,14.90
2024-03-31T06:18:02.167Z,14.40
2024-03-31T06:20:29.606Z,14.40
2024-03-31T06:22:56.980Z,10.90
2024-03-31T06:25:24.401Z,29.60
2024-03-31T06:27:51.919Z,13.40
2024-03-31T06:30:19.353Z,16.20
2024-03-31T06:32:46.822Z,11.30
2024-03-31T06:35:14.346Z,19.40
2024-03-31T06:37:41.794Z,7.10
2024-03-31T06:40:09.417Z,36.30
2024-03-31T06:42:36.770Z,12.60
2024-03-31T06:45:06.351Z,43.10
2024-03-31T06:47:34.583Z,38.80
2024-03-31T06:50:02.107Z,52.60
2024-03-31T06:52:29.506Z,35.10
2024-03-31T06:54:58.333Z,27.50
2024-03-31T06:57:25.686Z,25.90
2024-03-31T06:59:53.110Z,15.90
2024-03-31T07:02:20.544Z,9.70
2024-03-31T07:04:48.013Z,12.10
2024-03-31T07:07:15.486Z,25.00
2024-03-31T07:09:43.551Z,22.20
2024-03-31T07:12:11.032Z,30.00
2024-03-31T07:14:38.803Z,35.30
2024-03-31T07:17:07.050Z,40.90
2024-03-31T07:19:34.472Z,42.20
2024-03-31T07:22:01.860Z,20.40
2024-03-31T07:24:29.794Z,20.70
2024-03-31T07:26:57.130Z,26.80
2024-03-31T07:29:25.914Z,17.40
2024-03-31T07:31:53.603Z,21.50
2024-03-31T07:34:21.656Z,18.10
2024-03-31T07:36:49.073Z,19.20
2024-03-31T07:39:16.554Z,25.20
2024-03-31T07:41:44.662Z,23.40
2024-03-31T07:44:12.929Z,35.60
2024-03-31T07:46:40.356Z,17.90
2024-03-31T07:49:07.808Z,7.30
2024-03-31T07:51:35.294Z,10.70
2024-03-31T07:54:03.173Z,10.20
2024-03-31T07:56:31.078Z,12.70
2024-03-31T07:58:59.454Z,11.50
2024-03-31T08:01:26.830Z,26.70
2024-03-31T08:03:54.317Z,39.00
2024-03-31T08:06:21.643Z,7.60
2024-03-31T08:08:49.007Z,7.60
2024-03-31T08:11:17.772Z,5.70
2024-03-31T08:13:45.734Z,5.10
2024-03-31T08:16:13.116Z,6.60
2024-03-31T08:18:43.618Z,6.60
2024-03-31T08:21:14.057Z,5.60
2024-03-31T08:23:41.625Z,7.70
2024-03-31T08:26:09.040Z,2.40
2024-03-31T08:28:36.437Z,4.80
2024-03-31T08:31:03.912Z,4.40
2024-03-31T08:33:31.241Z,5.90
2024-03-31T08:35:58.675Z,3.80
2024-03-31T08:38:26.082Z,1.70
2024-03-31T08:40:55.123Z,6.80
2024-03-31T08:43:22.940Z,4.00
2024-03-31T08:45:53.317Z,3.50
2024-03-31T08:48:20.831Z,3.30
2024-03-31T08:50:48.483Z,2.70
2024-03-31T08:53:16.914Z,2.30
2024-03-31T08:55:44.314Z,2.60
2024-03-31T08:58:12.087Z,1.50
2024-03-31T09:00:41.316Z,2.90
2024-03-31T09:03:08.691Z,6.80
2024-03-31T09:05:39.447Z,3.40
2024-03-31T09:08:12.404Z,3.00
2024-03-31T09:10:41.808Z,3.80
2024-03-31T09:13:09.486Z,3.00
2024-03-31T09:15:37.307Z,2.10
2024-03-31T09:18:04.997Z,1.90
2024-03-31T09:20:34.146Z,2.30
2024-03-31T09:23:02.245Z,1.70
2024-03-31T09:25:29.713Z,1.70
2024-03-31T09:27:58.061Z,2.20
2024-03-31T09:30:25.514Z,2.40
2024-03-31T09:32:53.090Z,2.90
2024-03-31T09:35:21.142Z,3.50
2024-03-31T09:37:48.786Z,3.00
2024-03-31T09:40:16.579Z,3.60
2024-03-31T09:42:47.340Z,3.90
2024-03-31T09:45:15.328Z,2.70
2024-03-31T09:47:45.731Z,2.10
2024-03-31T09:50:35.193Z,2.10
2024-03-31T09:53:03.480Z,2.70
2024-03-31T09:55:31.400Z,1.90
2024-03-31T09:58:06.459Z,14.20
2024-03-31T10:00:33.914Z,7.30
2024-03-31T10:03:08.044Z,5.90
2024-03-31T10:05:39.369Z,3.20
2024-03-31T10:08:09.951Z,4.00
2024-03-31T10:10:37.806Z,8.00
2024-03-31T10:13:09.081Z,6.70
2024-03-31T10:15:36.917Z,10.60
2024-03-31T10:18:06.295Z,3.80
2024-03-31T10:20:33.739Z,2.60
2024-03-31T10:23:01.199Z,2.30
2024-03-31T10:25:31.583Z,1.60
2024-03-31T10:27:59.469Z,1.90
2024-03-31T10:30:28.478Z,3.00
2024-03-31T10:32:56.030Z,2.10
2024-03-31T10:35:23.812Z,1.20
2024-03-31T10:37:51.232Z,5.30
2024-03-31T10:40:23.003Z,0.90
2024-03-31T10:42:50.672Z,11.20
2024-03-31T10:45:18.192Z,15.20
2024-03-31T10:47:45.619Z,6.10
2024-03-31T10:50:13.022Z,3.40
2024-03-31T10:52:40.737Z,13.50
2024-03-31T10:55:09.107Z,14.80
2024-03-31T10:57:39.443Z,18.50
2024-03-31T11:00:07.731Z,17.20
2024-03-31T11:02:36.111Z,7.80
2024-03-31T11:05:09.574Z,2.40
2024-03-31T11:07:37.362Z,13.30
2024-03-31T11:10:08.736Z,14.30
2024-03-31T11:12:40.146Z,3.50
2024-03-31T11:15:11.149Z,2.70
2024-03-31T11:17:38.762Z,4.60
2024-03-31T11:20:07.055Z,4.10
2024-03-31T11:22:34.516Z,2.60
2024-03-31T11:25:02.554Z,2.30
2024-03-31T11:27:29.970Z,3.80
2024-03-31T11:29:57.449Z,7.00
2024-03-31T11:32:24.947Z,4.20
2024-03-31T11:34:52.346Z,6.90
2024-03-31T11:37:22.747Z,19.20
2024-03-31T11:39:57.883Z,3.80
2024-03-31T11:44:57.002Z,3.00
2024-03-31T11:47:24.486Z,5.90
2024-03-31T11:49:51.969Z,34.30
2024-03-31T11:52:19.403Z,12.10
2024-03-31T11:54:46.760Z,18.30
2024-03-31T11:57:16.934Z,12.20
2024-03-31T11:59:44.365Z,3.30
2024-03-31T12:02:11.840Z,2.20
2024-03-31T12:04:39.402Z,4.20
2024-03-31T12:07:06.850Z,14.60
2024-03-31T12:09:35.752Z,21.20
2024-03-31T12:12:03.310Z,3.20
2024-03-31T12:14:30.762Z,2.80
2024-03-31T12:16:58.466Z,4.30
2024-03-31T12:19:26.266Z,2.20
2024-03-31T12:21:53.758Z,8.10
2024-03-31T12:24:21.828Z,19.80
2024-03-31T12:26:51.908Z,22.90
2024-03-31T12:29:20.037Z,8.40
2024-03-31T12:31:47.563Z,9.00
2024-03-31T12:34:15.237Z,4.80
2024-03-31T12:36:42.853Z,4.60
2024-03-31T12:39:11.249Z,2.90
2024-03-31T12:41:38.666Z,11.50
2024-03-31T12:44:08.119Z,16.60
2024-03-31T12:46:38.959Z,15.50
2024-03-31T12:49:09.732Z,7.80
2024-03-31T12:51:37.377Z,3.00
2024-03-31T12:54:05.902Z,3.00
2024-03-31T12:56:34.157Z,2.10
2024-03-31T12:59:02.444Z,1.50
2024-03-31T13:01:31.988Z,2.90
2024-03-31T13:04:01.566Z,2.30
2024-03-31T13:06:29.068Z,3.50
2024-03-31T13:08:56.642Z,3.60
2024-03-31T13:11:24.149Z,3.70
2024-03-31T13:13:59.384Z,2.20
2024-03-31T13:16:26.878Z,1.20
2024-03-31T13:18:54.341Z,2.00
2024-03-31T13:21:21.757Z,2.00
2024-03-31T13:23:49.259Z,2.80
2024-03-31T13:26:17.087Z,4.80
2024-03-31T13:28:44.621Z,1.80
2024-03-31T13:31:12.286Z,5.40
2024-03-31T13:33:39.701Z,3.00
2024-03-31T13:36:07.373Z,2.70
2024-03-31T13:38:34.790Z,3.30
2024-03-31T13:41:02.226Z,3.50
2024-03-31T13:43:29.665Z,2.20
2024-03-31T13:45:57.121Z,2.10
2024-03-31T13:48:24.570Z,2.90
2024-03-31T13:50:52.014Z,1.40
2024-03-31T13:53:20.895Z,2.20
2024-03-31T13:55:49.681Z,1.90
2024-03-31T13:58:17.114Z,2.50
2024-03-31T14:00:44.737Z,2.90
2024-03-31T14:03:12.180Z,3.60
2024-03-31T14:05:39.584Z,2.90
2024-03-31T14:08:07.165Z,3.00
2024-03-31T14:10:34.697Z,4.60
2024-03-31T14:13:06.572Z,3.10
2024-03-31T14:15:35.499Z,5.60
2024-03-31T14:18:03.528Z,2.50
2024-03-31T14:20:31.625Z,2.90
2024-03-31T14:22:59.165Z,3.80
2024-03-31T14:25:26.719Z,3.10
2024-03-31T14:27:54.178Z,4.40
2024-03-31T14:30:21.745Z,3.10
2024-03-31T14:32:49.211Z,3.00
2024-03-31T14:35:16.714Z,4.00
2024-03-31T14:37:44.180Z,4.00
2024-03-31T14:40:11.955Z,4.60
2024-03-31T14:42:39.405Z,7.20
2024-03-31T14:45:07.023Z,3.40
2024-03-31T14:47:34.593Z,3.10
2024-03-31T14:50:03.053Z,2.60
2024-03-31T14:52:30.683Z,2.80
2024-03-31T14:54:58.762Z,2.70
2024-03-31T14:57:27.456Z,2.60
2024-03-31T14:59:55.191Z,3.60
2024-03-31T15:02:23.007Z,6.20
2024-03-31T15:04:50.452Z,2.40
2024-03-31T15:07:17.940Z,3.70
2024-03-31T15:09:45.467Z,3.00
2024-03-31T15:12:12.896Z,3.10
2024-03-31T15:14:40.376Z,3.40
2024-03-31T15:17:07.794Z,5.70
2024-03-31T15:19:35.275Z,5.10
2024-03-31T15:22:02.712Z,3.60
2024-03-31T15:24:30.317Z,4.20
2024-03-31T15:26:57.896Z,3.30
2024-03-31T15:29:26.448Z,4.30
2024-03-31T15:31:53.923Z,2.90
2024-03-31T15:34:21.330Z,3.10
2024-03-31T15:36:50.317Z,5.90
2024-03-31T15:39:17.829Z,2.90
2024-03-31T15:41:45.720Z,3.70
2024-03-31T15:44:13.253Z,2.90
2024-03-31T15:46:41.070Z,7.90
2024-03-31T15:49:08.648Z,6.30
2024-03-31T15:51:36.366Z,3.10
2024-03-31T15:54:05.560Z,3.70
2024-03-31T15:56:36.900Z,3.20
2024-03-31T15:59:07.791Z,3.60
2024-03-31T16:01:35.205Z,4.10
2024-03-31T16:04:02.842Z,3.50
2024-03-31T16:06:30.376Z,4.30
2024-03-31T16:08:58.551Z,6.00
2024-03-31T16:11:25.963Z,4.60
2024-03-31T16:13:55.539Z,3.70
2024-03-31T16:16:22.980Z,3.30
2024-03-31T16:18:51.258Z,5.60
2024-03-31T16:21:18.749Z,4.60
2024-03-31T16:23:46.246Z,5.30
2024-03-31T16:26:13.938Z,5.80
2024-03-31T16:28:41.462Z,5.90
2024-03-31T16:31:10.117Z,4.20
2024-03-31T16:33:37.626Z,4.50
2024-03-31T16:36:05.571Z,6.00
2024-03-31T16:38:33.001Z,3.50
2024-03-31T16:41:00.415Z,5.80
2024-03-31T16:43:27.897Z,4.90
2024-03-31T16:45:56.636Z,5.20
2024-03-31T16:48:24.042Z,4.10
2024-03-31T16:50:51.775Z,3.90
2024-03-31T16:53:19.985Z,5.30
2024-03-31T16:58:43.534Z,4.30
2024-03-31T17:01:11.199Z,5.50
2024-03-31T17:03:38.644Z,5.10
2024-03-31T17:06:07.233Z,5.30
2024-03-31T17:08:34.739Z,7.00
2024-03-31T17:11:02.230Z,11.20
2024-03-31T17:13:29.660Z,6.60
2024-03-31T17:15:57.268Z,4.40
2024-03-31T17:18:24.819Z,5.30
2024-03-31T17:20:52.301Z,5.80
2024-03-31T17:23:23.294Z,3.90
2024-03-31T17:25:57.259Z,8.20
2024-03-31T17:28:24.689Z,4.60
2024-03-31T17:30:52.171Z,6.50
2024-03-31T17:33:20.004Z,4.30
2024-03-31T17:35:57.424Z,3.40
2024-03-31T17:38:25.301Z,8.10
2024-03-31T17:40:59.925Z,6.50
2024-03-31T17:43:27.538Z,8.10
2024-03-31T17:46:05.966Z,6.20
2024-03-31T17:48:33.501Z,6.70
2024-03-31T17:51:09.137Z,7.90
2024-03-31T17:53:36.935Z,5.90
2024-03-31T17:56:07.561Z,8.50
2024-03-31T17:58:40.043Z,5.70
2024-03-31T18:01:08.021Z,5.90
2024-03-31T18:03:35.500Z,9.70
2024-03-31T18:06:02.992Z,5.70
2024-03-31T18:08:30.665Z,4.70
2024-03-31T18:11:01.730Z,4.90
2024-03-31T18:13:29.617Z,10.40
2024-03-31T18:15:58.085Z,7.50
2024-03-31T18:18:26.664Z,6.10
2024-03-31T18:20:54.331Z,7.00
2024-03-31T18:23:21.829Z,4.40
2024-03-31T18:25:53.166Z,4.80
2024-03-31T18:28:20.644Z,7.50
2024-03-31T18:30:48.437Z,5.90
2024-03-31T18:33:16.481Z,5.70
2024-03-31T18:35:44.288Z,8.50
2024-03-31T18:38:12.811Z,5.70
2024-03-31T18:40:47.886Z,9.10
2024-03-31T18:43:15.935Z,6.30
2024-03-31T18:45:50.492Z,5.80
2024-03-31T18:48:17.916Z,8.60
2024-03-31T18:50:45.319Z,6.80
2024-03-31T18:53:12.781Z,7.90
2024-03-31T18:55:40.494Z,9.50
2024-03-31T18:58:07.916Z,11.40
2024-03-31T19:00:35.680Z,8.80
2024-03-31T19:03:03.172Z,8.70
2024-03-31T19:05:30.587Z,8.50
2024-03-31T19:07:58.140Z,10.00
2024-03-31T19:10:26.294Z,8.90
2024-03-31T19:12:55.988Z,8.00
2024-03-31T19:15:23.436Z,9.50
2024-03-31T19:17:50.853Z,6.80
2024-03-31T19:20:18.335Z,6.80
2024-03-31T19:22:45.764Z,9.00
2024-03-31T19:25:16.495Z,7.10
2024-03-31T19:27:44.542Z,6.70
2024-03-31T19:30:12.153Z,7.30
2024-03-31T19:32:39.607Z,6.60
2024-03-31T19:35:07.231Z,6.20
2024-03-31T19:37:34.659Z,9.20
2024-03-31T19:40:02.240Z,6.10
2024-03-31T19:42:29.678Z,7.90
2024-03-31T19:44:57.213Z,6.90
2024-03-31T19:47:24.701Z,10.90
2024-03-31T19:49:52.686Z,5.80
2024-03-31T19:52:20.137Z,7.80
2024-03-31T19:54:47.851Z,6.90
2024-03-31T19:57:15.258Z,7.80
2024-03-31T19:59:43.280Z,10.10
2024-03-31T20:02:15.610Z,9.30
2024-03-31T20:04:44.485Z,16.00
2024-03-31T20:07:12.028Z,10.40
2024-03-31T20:09:39.481Z,5.00
2024-03-31T20:12:07.022Z,8.90
2024-03-31T20:14:34.469Z,7.60
2024-03-31T20:17:02.154Z,6.40
2024-03-31T20:19:29.576Z,6.20
2024-03-31T20:21:57.067Z,11.00
2024-03-31T20:24:24.484Z,8.40
2024-03-31T20:26:51.915Z,10.40
2024-03-31T20:29:19.354Z,7.70
2024-03-31T20:31:46.790Z,9.50
2024-03-31T20:34:14.386Z,12.30
2024-03-31T20:36:41.863Z,9.70
2024-03-31T20:39:09.250Z,11.40
2024-03-31T20:41:36.915Z,12.00
2024-03-31T20:44:04.404Z,9.50
2024-03-31T20:46:31.783Z,12.00
2024-03-31T20:48:59.242Z,12.50
2024-03-31T20:51:26.653Z,11.10
2024-03-31T20:53:54.058Z,10.30
2024-03-31T20:56:21.488Z,13.40
2024-03-31T20:58:58.798Z,11.40
2024-03-31T21:01:33.929Z,12.70
2024-03-31T21:04:01.974Z,11.10
2024-03-31T21:06:29.472Z,10.70
2024-03-31T21:08:56.933Z,14.80
2024-03-31T21:11:24.348Z,11.60
2024-03-31T21:13:51.989Z,14.20
2024-03-31T21:16:19.545Z,10.00
2024-03-31T21:18:47.284Z,10.80
2024-03-31T21:21:21.581Z,10.90
2024-03-31T21:23:48.962Z,11.40
2024-03-31T21:26:16.833Z,11.10
2024-03-31T21:28:44.398Z,7.90
2024-03-31T21:31:15.776Z,10.40
2024-03-31T21:33:43.779Z,8.90
2024-03-31T21:36:15.954Z,9.10
2024-03-31T21:38:43.342Z,11.30
2024-03-31T21:41:11.031Z,7.70
2024-03-31T21:43:38.637Z,7.90
2024-03-31T21:46:05.945Z,9.90
2024-03-31T21:48:33.346Z,10.90
2024-03-31T21:51:01.175Z,11.80
2024-03-31T21:53:28.589Z,10.10
2024-03-31T21:55:56.552Z,8.00
2024-03-31T21:58:24.203Z,9.10
2024-03-31T22:00:51.623Z,7.60
2024-03-31T22:03:19.728Z,8.80
2024-03-31T22:05:47.092Z,9.00
2024-03-31T22:08:14.435Z,8.10
2024-03-31T22:10:41.840Z,7.20
2024-03-31T22:13:09.221Z,8.00
2024-03-31T22:15:36.552Z,6.90
2024-03-31T22:18:03.963Z,8.80
2024-03-31T22:20:31.292Z,10.60
2024-03-31T22:22:58.614Z,22.90
2024-03-31T22:25:26.013Z,14.10
2024-03-31T22:27:53.352Z,10.30
2024-03-31T22:30:20.678Z,9.60
2024-03-31T22:32:48.097Z,11.40
2024-03-31T22:35:15.477Z,11.70
2024-03-31T22:37:42.799Z,13.10
2024-03-31T22:40:10.788Z,10.20
2024-03-31T22:42:38.144Z,11.00
2024-03-31T22:45:05.863Z,10.90
2024-03-31T22:47:33.376Z,12.90
2024-03-31T22:50:00.745Z,12.20
2024-03-31T22:52:28.113Z,9.00
2024-03-31T22:54:55.498Z,8.30
2024-03-31T22:57:22.889Z,9.00
2024-03-31T22:59:50.228Z,9.50
2024-03-31T23:02:17.666Z,8.50
2024-03-31T23:04:45.116Z,6.90
2024-03-31T23:07:12.470Z,8.80
2024-03-31T23:09:39.866Z,6.60
2024-03-31T23:12:07.261Z,9.40
2024-03-31T23:14:34.617Z,9.00
2024-03-31T23:17:01.992Z,8.30
2024-03-31T23:19:30.123Z,6.50
2024-03-31T23:21:57.454Z,10.40
2024-03-31T23:24:24.883Z,9.80
2024-03-31T23:26:52.255Z,9.70
2024-03-31T23:29:19.680Z,9.20
2024-03-31T23:31:47.086Z,7.10
2024-03-31T23:34:14.513Z,7.90
2024-03-31T23:36:41.893Z,7.80
2024-03-31T23:39:09.569Z,4.50
2024-03-31T23:41:36.930Z,10.30
2024-03-31T23:44:04.326Z,7.20
2024-03-31T23:46:31.972Z,10.00
2024-03-31T23:48:59.321Z,6.10
2024-03-31T23:51:28.277Z,8.30
2024-03-31T23:53:55.740Z,5.40
2024-03-31T23:56:23.073Z,6.30
2024-03-31T23:58:50.408Z,8.00
